Time;durP1;ratioP1;P1;durP2;ratioP2;P2;SDS_P1;SDS_P2;PMS_P1;PMS_P2;Temp;Humidity;BMP_temperature;BMP_pressure;BME280_temperature;BME280_humidity;BME280_pressure;Samples;Min_cycle;Max_cycle;Signal;HPM_P1;HPM_P2
2022/11/22 00:02:38;;;;;;;2.03;0.97;;;;;;;;;;20900421;28;20770;-69
2022/11/22 00:12:40;;;;;;;1.63;0.50;;;6.60;99.90;;;;;;20898901;28;20229;-68
2022/11/22 00:22:43;;;;;;;1.83;0.83;;;;;;;;;;20900291;28;20222;-67
2022/11/22 00:32:45;;;;;;;2.43;0.60;;;;;;;;;;20898748;28;20239;-69
2022/11/22 00:42:46;;;;;;;1.43;0.60;;;;;;;;;;20897328;28;20279;-69
2022/11/22 00:52:48;;;;;;;3.97;0.67;;;;;;;;;;20897076;28;20275;-68
2022/11/22 01:02:50;;;;;;;1.53;0.83;;;;;;;;;;20913886;28;20202;-68
2022/11/22 01:12:51;;;;;;;1.63;0.93;;;;;;;;;;20895547;28;20581;-68
2022/11/22 01:22:54;;;;;;;0.63;0.40;;;;;;;;;;20912207;28;20248;-69
2022/11/22 01:32:55;;;;;;;0.60;0.50;;;;;;;;;;20910489;28;20263;-68
2022/11/22 01:42:59;;;;;;;1.90;0.53;;;6.70;99.90;;;;;;20910480;28;20615;-69
2022/11/22 01:53:03;;;;;;;0.53;0.40;;;;;;;;;;20891988;28;20226;-70
2022/11/22 02:03:06;;;;;;;1.03;0.43;;;;;;;;;;20909687;28;20276;-70
2022/11/22 02:13:08;;;;;;;0.80;0.50;;;;;;;;;;20890443;28;20244;-68
2022/11/22 02:23:19;;;;;;;0.87;0.37;;;;;;;;;;20889122;28;20589;-69
2022/11/22 02:33:20;;;;;;;0.40;0.27;;;;;;;;;;20906062;28;20274;-68
2022/11/22 02:43:46;;;;;;;0.73;0.40;;;7.00;99.90;;;;;;20905891;28;20237;-68
2022/11/22 02:53:49;;;;;;;1.13;0.50;;;6.90;99.90;;;;;;20892438;28;20222;-69
2022/11/22 03:03:51;;;;;;;2.17;0.50;;;;;;;;;;20903675;28;20244;-68
2022/11/22 03:13:53;;;;;;;2.07;0.67;;;;;;;;;;20902002;28;20263;-69
2022/11/22 03:23:55;;;;;;;1.30;0.60;;;;;;;;;;20885856;28;20205;-67
2022/11/22 03:33:56;;;;;;;1.50;0.70;;;;;;;;;;20901424;28;20226;-68
2022/11/22 03:43:58;;;;;;;0.33;0.30;;;;;;;;;;20991612;22;20746;-68
2022/11/22 03:54:00;;;;;;;1.00;0.53;;;;;;;;;;20982344;28;20233;-68
2022/11/22 04:04:02;;;;;;;4.00;0.50;;;;;;;;;;20966522;28;20205;-68
2022/11/22 04:34:45;;;;;;;2.50;0.50;;;;;;;;;;20975401;28;20700;-68
2022/11/22 04:44:47;;;;;;;1.10;0.60;;;;;;;;;;20970130;28;20258;-67
2022/11/22 04:54:48;;;;;;;5.67;0.80;;;;;;;;;;20981258;28;20213;-69
2022/11/22 05:04:50;;;;;;;1.40;0.50;;;;;;;;;;20981372;28;20602;-69
2022/11/22 05:14:52;;;;;;;2.53;0.60;;;;;;;;;;20981182;28;20225;-68
2022/11/22 05:24:54;;;;;;;1.63;0.73;;;;;;;;;;20988992;28;20271;-68
2022/11/22 05:34:55;;;;;;;1.87;0.97;;;;;;;;;;20994882;28;20209;-69
2022/11/22 05:44:57;;;;;;;4.67;0.67;;;;;;;;;;20991535;28;20228;-69
2022/11/22 05:54:59;;;;;;;0.60;0.20;;;;;;;;;;20985946;28;20243;-68
2022/11/22 06:05:01;;;;;;;2.20;0.57;;;;;;;;;;20991314;28;20201;-69
2022/11/22 06:15:02;;;;;;;3.50;1.00;;;;;;;;;;20979823;28;20217;-69
2022/11/22 06:25:04;;;;;;;2.40;1.13;;;6.70;99.90;;;;;;20990287;28;20217;-69
2022/11/22 06:35:06;;;;;;;4.67;1.10;;;6.80;99.90;;;;;;20989551;28;20221;-69
2022/11/22 06:45:08;;;;;;;1.40;0.30;;;5.60;99.90;;;;;;20983530;28;20743;-70
2022/11/22 06:55:10;;;;;;;0.70;0.33;;;;;;;;;;20987710;28;20229;-69
2022/11/22 07:05:12;;;;;;;2.03;0.40;;;;;;;;;;20977405;28;20225;-69
2022/11/22 07:15:14;;;;;;;4.00;0.60;;;;;;;;;;20968607;28;20221;-72
2022/11/22 07:25:16;;;;;;;2.90;0.77;;;;;;;;;;20982631;28;20350;-70
2022/11/22 07:35:18;;;;;;;1.83;1.00;;;;;;;;;;20983429;28;20225;-69
2022/11/22 07:45:19;;;;;;;1.73;1.00;;;;;;;;;;20983347;28;20565;-69
2022/11/22 07:55:21;;;;;;;1.33;0.50;;;;;;;;;;20984824;28;20208;-70
2022/11/22 08:05:23;;;;;;;4.43;1.07;;;;;;;;;;20979938;28;20255;-70
2022/11/22 08:15:25;;;;;;;3.03;1.13;;;;;;;;;;20980552;28;20225;-69
2022/11/22 08:25:27;;;;;;;1.37;0.57;;;;;;;;;;20945113;28;20210;-67
2022/11/22 08:35:29;;;;;;;0.67;0.50;;;;;;;;;;20897153;28;20309;-67
2022/11/22 08:45:31;;;;;;;1.03;0.40;;;;;;;;;;20970986;28;20307;-69
2022/11/22 08:55:32;;;;;;;1.07;0.50;;;;;;;;;;20984852;28;20212;-72
2022/11/22 09:05:34;;;;;;;1.00;0.33;;;;;;;;;;20993960;28;20209;-71
2022/11/22 09:15:37;;;;;;;1.70;0.60;;;;;;;;;;20992555;28;20666;-71
2022/11/22 09:25:38;;;;;;;0.53;0.30;;;;;;;;;;20993329;28;20684;-70
2022/11/22 09:35:40;;;;;;;1.90;0.53;;;;;;;;;;20967140;22;20234;31
2022/11/22 09:46:04;;;;;;;1.17;0.57;;;;;;;;;;21072988;28;20759;-71
2022/11/22 09:56:12;;;;;;;0.20;0.20;;;;;;;;;;21077507;28;20236;-70
2022/11/22 10:06:28;;;;;;;1.20;0.53;;;;;;;;;;21074314;28;20560;-70
2022/11/22 10:16:30;;;;;;;0.23;0.23;;;;;;;;;;21074810;28;20236;-70
2022/11/22 10:26:33;;;;;;;3.50;0.50;;;;;;;;;;21074560;28;20293;-70
2022/11/22 10:37:18;;;;;;;3.80;0.33;;;7.50;99.90;;;;;;21073701;28;20269;-68
2022/11/22 10:47:31;;;;;;;0.37;0.20;;;7.50;99.90;;;;;;21057759;28;20212;-68
2022/11/22 10:57:46;;;;;;;5.53;0.50;;;7.60;99.90;;;;;;21072327;28;20276;-68
2022/11/22 11:07:50;;;;;;;1.17;0.50;;;;;;;;;;21071103;28;20835;-68
2022/11/22 11:18:00;;;;;;;0.63;0.40;;;;;;;;;;21070121;28;20224;-71
2022/11/22 11:28:05;;;;;;;2.00;0.63;;;7.80;99.90;;;;;;21069882;28;20288;-71
2022/11/22 11:38:25;;;;;;;1.30;0.40;;;7.90;99.90;;;;;;21069454;28;20589;-71
2022/11/22 11:48:36;;;;;;;1.03;0.50;;;7.90;99.90;;;;;;21067864;28;20234;-71
2022/11/22 11:58:38;;;;;;;1.50;0.47;;;;;;;;;;21066600;28;20216;-71
2022/11/22 12:08:40;;;;;;;0.40;0.30;;;7.80;99.90;;;;;;21066371;28;20258;-69
2022/11/22 12:18:51;;;;;;;0.90;0.33;;;;;;;;;;21065063;28;20273;-70
2022/11/22 12:28:54;;;;;;;0.20;0.10;;;;;;;;;;21068163;28;20212;-69
2022/11/22 12:38:58;;;;;;;2.00;0.30;;;8.20;99.90;;;;;;21083399;28;20756;-69
2022/11/22 12:49:04;;;;;;;0.10;0.10;;;;;;;;;;21082494;28;20568;-71
2022/11/22 12:59:40;;;;;;;0.97;0.50;;;8.10;99.90;;;;;;21081091;28;20277;-74
2022/11/22 13:09:49;;;;;;;2.30;0.47;;;;;;;;;;21069670;28;20278;-75
2022/11/22 13:19:53;;;;;;;0.50;0.20;;;;;;;;;;21077751;28;20285;-74
2022/11/22 13:29:58;;;;;;;0.27;0.20;;;8.20;99.90;;;;;;21013366;28;20749;-74
2022/11/22 13:40:15;;;;;;;0.43;0.30;;;8.00;99.90;;;;;;20993111;28;20237;-74
2022/11/22 13:50:35;;;;;;;0.77;0.40;;;;;;;;;;20990396;28;20209;-75
2022/11/22 14:00:40;;;;;;;0.77;0.20;;;;;;;;;;21009887;28;20217;-74
2022/11/22 14:10:51;;;;;;;0.33;0.20;;;;;;;;;;21075941;28;20683;-75
2022/11/22 14:21:08;;;;;;;0.50;0.20;;;;;;;;;;21079580;28;20216;-74
2022/11/22 14:31:24;;;;;;;0.17;0.17;;;;;;;;;;21072051;28;20293;-73
2022/11/22 14:41:26;;;;;;;0.87;0.10;;;;;;;;;;21071127;28;20572;-75
2022/11/22 14:51:30;;;;;;;0.30;0.20;;;;;;;;;;21071856;28;20204;-74
2022/11/22 15:01:32;;;;;;;1.50;0.23;;;;;;;;;;21042727;28;20672;-75
2022/11/22 15:11:50;;;;;;;0.30;0.10;;;;;;;;;;20983282;28;20302;-74
2022/11/22 15:22:04;;;;;;;0.60;0.30;;;;;;;;;;21007098;28;20275;-74
2022/11/22 15:32:08;;;;;;;0.50;0.40;;;7.40;99.90;;;;;;21063868;28;20641;-75
2022/11/22 15:42:14;;;;;;;0.17;0.17;;;;;;;;;;21051093;22;20299;-68
2022/11/22 15:52:24;;;;;;;0.20;0.10;;;;;;;;;;21022064;28;20631;-68
2022/11/22 16:02:29;;;;;;;0.20;0.17;;;7.10;99.90;;;;;;21034880;28;20803;-68
2022/11/22 16:12:35;;;;;;;0.23;0.20;;;;;;;;;;21017508;28;20269;-68
2022/11/22 16:22:38;;;;;;;0.23;0.10;;;;;;;;;;20942221;28;20348;-68
2022/11/22 16:32:40;;;;;;;2.67;0.67;;;;;;;;;;20917154;28;20213;-68
2022/11/22 16:42:43;;;;;;;0.40;0.20;;;;;;;;;;20966713;28;20266;-68
2022/11/22 16:52:45;;;;;;;0.60;0.43;;;;;;;;;;20952078;28;20209;-68
2022/11/22 17:02:47;;;;;;;1.17;0.50;;;;;;;;;;20932662;28;20274;-68
2022/11/22 17:12:50;;;;;;;0.10;0.07;;;;;;;;;;20917945;28;20279;-68
2022/11/22 17:22:51;;;;;;;0.77;0.50;;;;;;;;;;20937372;28;20724;-68
2022/11/22 17:32:53;;;;;;;1.87;0.40;;;;;;;;;;20940732;28;20262;-67
2022/11/22 17:42:55;;;;;;;0.33;0.20;;;;;;;;;;20939983;28;20267;-68
2022/11/22 17:52:57;;;;;;;0.20;0.20;;;;;;;;;;20940395;28;20217;-68
2022/11/22 18:02:59;;;;;;;1.60;0.50;;;;;;;;;;20945068;28;20225;-68
2022/11/22 18:13:02;;;;;;;0.17;0.17;;;;;;;;;;20940230;28;20745;-68
2022/11/22 18:23:04;;;;;;;1.27;0.40;;;;;;;;;;20942322;28;20337;-68
2022/11/22 18:33:06;;;;;;;0.50;0.20;;;;;;;;;;20959369;28;20873;-68
2022/11/22 18:43:08;;;;;;;0.67;0.50;;;;;;;;;;20956746;28;20236;-68
2022/11/22 18:53:10;;;;;;;1.10;0.80;;;;;;;;;;21016922;28;20212;-68
2022/11/22 19:03:12;;;;;;;2.10;0.83;;;;;;;;;;21032168;28;20236;-68
2022/11/22 19:13:14;;;;;;;2.00;0.30;;;;;;;;;;21014845;28;20213;-68
2022/11/22 19:23:16;;;;;;;0.47;0.30;;;;;;;;;;20976273;28;20274;-68
2022/11/22 19:33:18;;;;;;;0.60;0.30;;;;;;;;;;20929629;28;20209;-68
2022/11/22 19:43:20;;;;;;;0.60;0.40;;;;;;;;;;20948641;28;20294;-68
2022/11/22 19:53:22;;;;;;;0.87;0.60;;;;;;;;;;20949500;28;20213;-68
2022/11/22 20:03:24;;;;;;;0.63;0.37;;;;;;;;;;20919246;28;20229;-68
2022/11/22 20:13:27;;;;;;;0.40;0.30;;;;;;;;;;20947806;28;20270;-68
2022/11/22 20:23:29;;;;;;;0.50;0.43;;;6.80;99.90;;;;;;20949502;28;20274;-68
2022/11/22 20:33:34;;;;;;;1.07;0.60;;;;;;;;;;20948059;28;20385;-68
2022/11/22 20:43:37;;;;;;;1.17;0.40;;;6.90;99.90;;;;;;20964706;28;20590;-68
2022/11/22 20:53:39;;;;;;;2.37;0.47;;;;;;;;;;20939729;28;20201;-68
2022/11/22 21:03:41;;;;;;;1.40;0.50;;;6.50;99.90;;;;;;20950520;28;20201;-69
2022/11/22 21:13:44;;;;;;;4.63;0.80;;;;;;;;;;20930357;28;20227;-69
2022/11/22 21:23:46;;;;;;;1.67;0.90;;;;;;;;;;20946740;28;20201;-67
2022/11/22 21:33:48;;;;;;;0.93;0.60;;;;;;;;;;20964969;28;20221;-70
2022/11/22 21:43:53;;;;;;;1.00;0.57;;;;;;;;;;20977087;22;20233;-66
2022/11/22 21:53:57;;;;;;;1.40;0.70;;;6.50;99.90;;;;;;20961545;28;20704;-66
2022/11/22 22:03:59;;;;;;;3.57;1.40;;;;;;;;;;20943198;28;20209;-66
2022/11/22 22:14:01;;;;;;;0.70;0.43;;;;;;;;;;20959487;28;20225;-66
2022/11/22 22:24:03;;;;;;;2.53;0.70;;;;;;;;;;20942890;28;20688;-66
2022/11/22 22:34:05;;;;;;;0.93;0.77;;;;;;;;;;20942310;28;20765;-66
2022/11/22 22:44:07;;;;;;;1.00;0.57;;;;;;;;;;20957945;28;20241;-66
2022/11/22 22:54:10;;;;;;;2.00;0.67;;;;;;;;;;20956819;28;20303;-66
2022/11/22 23:04:11;;;;;;;0.47;0.40;;;;;;;;;;20940211;28;20197;-66
2022/11/22 23:14:14;;;;;;;1.80;0.80;;;;;;;;;;20922362;28;20286;-66
2022/11/22 23:24:16;;;;;;;1.07;0.80;;;;;;;;;;20938332;28;20194;-66
2022/11/22 23:34:18;;;;;;;2.77;0.70;;;;;;;;;;20953698;28;20225;-66
2022/11/22 23:44:20;;;;;;;3.37;0.70;;;;;;;;;;20937451;28;20272;-66
2022/11/22 23:54:22;;;;;;;1.30;0.77;;;;;;;;;;20920104;28;20278;-66
